Miguel Oliver — ECLX — position and weather

sailwx.info

Track history (hours):
 
Tides and Currents Weather Stations Pressure Air Temp Water Temp Dewpoint Dewpoint Depression Visibility Wind Speed Wind Dir Waves Ship Positions

Oceanographic research ship Miguel Oliver (Spain)

Ship's website: http://www.mapa.es/es/pesca/pags/miguel_web/index.htm

Last reported at 2016-Jun-25 06:34 UTC. Time now 2016-Jun-25 07:08 UTC.
Position N 39°32' E 002°36'.

Length 70 m; draft 4.8 m.

Type: Other ship. MMSI: 225322000.

Date/timePositionNaut miles runAvg speedWind from/ knotsBaromVisibWave heightAir tempDewpointWater temp
2016-Jun-25 06:34N 39°32' E 002°36'1 1.3
2016-Jun-25 05:33N 39°33' E 002°38'0 0.0
2016-Jun-25 04:33N 39°33' E 002°38'0 0.0
2016-Jun-25 03:33N 39°33' E 002°38'0 0.0
2016-Jun-25 02:33N 39°33' E 002°38'0 0.0
2016-Jun-25 01:34N 39°33' E 002°38'0 0.0
2016-Jun-25 00:33N 39°33' E 002°38'0 0.0
2016-Jun-24 23:33N 39°33' E 002°38'0 0.0
2016-Jun-24 22:33N 39°33' E 002°38'0 0.0
2016-Jun-24 21:33N 39°33' E 002°38'0 0.0
2016-Jun-24 20:33N 39°33' E 002°38'0 0.0
2016-Jun-24 19:33N 39°33' E 002°38'0 0.0
2016-Jun-24 18:33N 39°33' E 002°38'1 0.7
2016-Jun-24 17:33N 39°32' E 002°38'1110.7
2016-Jun-24 16:33N 39°23' E 002°33'9 8.8
2016-Jun-24 15:34N 39°15' E 002°28'3 3.5
2016-Jun-24 14:33N 39°15' E 002°33'4 3.6
2016-Jun-24 13:33N 39°15' E 002°38'2 2.4
2016-Jun-24 12:34N 39°13' E 002°40'3 2.7
2016-Jun-24 11:33N 39°15' E 002°37'7 6.8
2016-Jun-24 10:34N 39°21' E 002°36'10 9.6
2016-Jun-24 09:33N 39°31' E 002°38'2 1.8
2016-Jun-24 08:33N 39°33' E 002°38'0 0.0
2016-Jun-24 07:34N 39°33' E 002°38'0 0.0
2016-Jun-24 04:33N 39°33' E 002°38'0 0.0
2016-Jun-24 03:33N 39°33' E 002°38'0 0.0
2016-Jun-24 02:25N 39°33' E 002°38'0 0.0
2016-Jun-24 01:32N 39°33' E 002°38'0 0.0
2016-Jun-24 00:32N 39°33' E 002°38'0 0.0
2016-Jun-23 23:33N 39°33' E 002°38'0 0.0
2016-Jun-23 22:31N 39°33' E 002°38'0 0.0
2016-Jun-23 21:31N 39°33' E 002°38'0 0.0
2016-Jun-23 20:29N 39°33' E 002°38'0 0.0
2016-Jun-23 19:33N 39°33' E 002°38'0 0.0
2016-Jun-23 18:33N 39°33' E 002°38'0 0.0
2016-Jun-23 17:31N 39°33' E 002°38'0 0.0
2016-Jun-23 16:32N 39°33' E 002°38'0 0.0
2016-Jun-23 15:32N 39°33' E 002°38'0 0.0
2016-Jun-23 14:30N 39°33' E 002°38'0 0.0
2016-Jun-23 13:31N 39°33' E 002°38'0 0.0
2016-Jun-23 12:31N 39°33' E 002°38'0 0.0
2016-Jun-23 11:32N 39°33' E 002°38'0 0.0
2016-Jun-23 10:33N 39°33' E 002°38'0 0.0
2016-Jun-23 09:33N 39°33' E 002°38'0 0.0
2016-Jun-23 08:31N 39°33' E 002°38'0 0.0
2016-Jun-23 07:32N 39°33' E 002°38'0 0.0
2016-Jun-23 05:33N 39°33' E 002°38'0 0.0
2016-Jun-23 04:34N 39°33' E 002°38'0 0.0
2016-Jun-23 03:31N 39°33' E 002°38'0 0.0
2016-Jun-23 02:32N 39°33' E 002°38'0 0.0
2016-Jun-23 01:33N 39°33' E 002°38'0 0.0
2016-Jun-23 00:33N 39°33' E 002°38'0 0.0
2016-Jun-22 23:31N 39°33' E 002°38'0 0.0
2016-Jun-22 22:32N 39°33' E 002°38'0 0.0
2016-Jun-22 21:32N 39°33' E 002°38'0 0.0
2016-Jun-22 20:33N 39°33' E 002°38'0 0.0
2016-Jun-22 19:33N 39°33' E 002°38'0 0.0
2016-Jun-22 18:31N 39°33' E 002°38'0 0.0
2016-Jun-22 17:32N 39°33' E 002°38'0 0.0
2016-Jun-22 16:33N 39°33' E 002°38'0 0.0
2016-Jun-22 15:33N 39°33' E 002°38'0 0.0
2016-Jun-22 14:31N 39°33' E 002°38'0 0.0
2016-Jun-22 13:32N 39°33' E 002°38'0 0.0
2016-Jun-22 12:32N 39°33' E 002°38'0 0.0
2016-Jun-22 11:33N 39°33' E 002°38'0 0.0
2016-Jun-22 10:33N 39°33' E 002°38'0 0.0
2016-Jun-22 09:22N 39°33' E 002°38'0 0.0
2016-Jun-22 08:32N 39°33' E 002°38'0 0.0
2016-Jun-22 07:33N 39°33' E 002°38'0 0.0
2016-Jun-22 06:24N 39°33' E 002°38'0 0.0
2016-Jun-22 05:31N 39°33' E 002°38'0 0.0
2016-Jun-22 04:32N 39°33' E 002°38'0 0.0
2016-Jun-22 03:32N 39°33' E 002°38'0 0.0
2016-Jun-22 02:33N 39°33' E 002°38'0 0.0
2016-Jun-22 01:33N 39°33' E 002°38'0 0.0
2016-Jun-22 00:31N 39°33' E 002°38'0 0.0
2016-Jun-21 23:32N 39°33' E 002°38'0 0.0
2016-Jun-21 22:33N 39°33' E 002°38'0 0.0
2016-Jun-21 21:33N 39°33' E 002°38'0 0.0
2016-Jun-21 20:28N 39°33' E 002°38'0 0.0
2016-Jun-21 19:32N 39°33' E 002°38'0 0.0
2016-Jun-21 18:32N 39°33' E 002°38'0 0.0
2016-Jun-21 17:33N 39°33' E 002°38'0 0.0
2016-Jun-21 16:33N 39°33' E 002°38'0 0.0
2016-Jun-21 15:31N 39°33' E 002°38'0 0.0
2016-Jun-21 14:32N 39°33' E 002°38'0 0.0
2016-Jun-21 13:30N 39°33' E 002°38'0 0.0
2016-Jun-21 12:33N 39°33' E 002°38'0 0.0
2016-Jun-21 11:31N 39°33' E 002°38'0 0.0
2016-Jun-21 10:32N 39°33' E 002°38'0 0.0
2016-Jun-21 09:32N 39°33' E 002°38'0 0.0
2016-Jun-21 08:33N 39°33' E 002°38'0 0.0
2016-Jun-21 07:34N 39°33' E 002°38'2 0.9
2016-Jun-21 05:33N 39°32' E 002°39'1010.0
2016-Jun-21 04:33N 39°22' E 002°40'3 3.1
2016-Jun-21 03:33N 39°19' E 002°40'1 0.6
2016-Jun-21 02:33N 39°19' E 002°39'1 0.7
2016-Jun-21 01:33N 39°19' E 002°38'1 0.7
2016-Jun-21 00:33N 39°20' E 002°37'1 0.8
2016-Jun-20 23:33N 39°20' E 002°36'1 1.0
2016-Jun-20 22:33N 39°21' E 002°35'1 1.0
2016-Jun-20 21:33N 39°21' E 002°34'1 1.1
2016-Jun-20 20:33N 39°21' E 002°33'1 1.1
2016-Jun-20 19:33N 39°22' E 002°31'1 1.1
2016-Jun-20 18:33N 39°22' E 002°30'1 1.0
2016-Jun-20 17:33N 39°23' E 002°29'1 1.1
2016-Jun-20 16:33N 39°23' E 002°28'1 1.0
2016-Jun-20 15:33N 39°24' E 002°27'1 0.7
2016-Jun-20 14:33N 39°25' E 002°26'4 4.1
2016-Jun-20 13:33N 39°23' E 002°22'3 3.0
2016-Jun-20 12:28N 39°21' E 002°18'6 6.4
2016-Jun-20 11:33N 39°26' E 002°14'3 2.9
2016-Jun-20 10:33N 39°27' E 002°17'5 4.9
2016-Jun-20 09:33N 39°32' E 002°21'1 1.1
2016-Jun-20 08:23N 39°31' E 002°22'8 9.4
2016-Jun-20 07:33N 39°26' E 002°30'1 1.3
2016-Jun-20 06:33N 39°25' E 002°30'1 0.9
2016-Jun-20 05:33N 39°25' E 002°31'5 4.7
2016-Jun-20 04:33N 39°22' E 002°37'2 1.9
2016-Jun-20 03:33N 39°21' E 002°39'1 0.8
2016-Jun-20 02:33N 39°21' E 002°38'1 0.9
2016-Jun-20 01:33N 39°21' E 002°37'1 0.9
2016-Jun-20 00:33N 39°21' E 002°35'1 0.8
2016-Jun-19 23:33N 39°21' E 002°34'1 0.6
2016-Jun-19 22:33N 39°21' E 002°34'1 0.6
2016-Jun-19 21:33N 39°21' E 002°33'1 0.6
2016-Jun-19 20:33N 39°21' E 002°32'1 0.7
2016-Jun-19 19:33N 39°22' E 002°32'1 1.2
2016-Jun-19 18:33N 39°23' E 002°31'1 1.1
2016-Jun-19 17:33N 39°24' E 002°30'6 5.9
2016-Jun-19 16:33N 39°20' E 002°25'2 1.6
2016-Jun-19 15:27N 39°18' E 002°24'1 1.3
2016-Jun-19 14:33N 39°17' E 002°26'3 3.5
2016-Jun-19 13:33N 39°15' E 002°29'3 3.0
2016-Jun-19 12:33N 39°12' E 002°30'3 3.2
2016-Jun-19 11:33N 39°10' E 002°33'1 1.1
2016-Jun-19 10:33N 39°09' E 002°33'2 2.2
2016-Jun-19 09:33N 39°07' E 002°35'4 3.7
2016-Jun-19 08:33N 39°04' E 002°38'4 4.0
2016-Jun-19 07:33N 39°00' E 002°39'3 2.9
2016-Jun-19 06:33N 38°58' E 002°38'2 2.3
2016-Jun-19 05:33N 38°55' E 002°37'5 5.1
2016-Jun-19 04:33N 39°00' E 002°36'7 6.8
2016-Jun-19 03:33N 39°07' E 002°33'7 6.7
2016-Jun-19 02:33N 39°13' E 002°30'7 6.7
2016-Jun-19 01:34N 39°19' E 002°27'6 6.3
2016-Jun-19 00:33N 39°25' E 002°23'6 5.7
2016-Jun-18 23:33N 39°29' E 002°19'5 5.5
2016-Jun-18 22:33N 39°34' E 002°16'5 5.3
2016-Jun-18 21:33N 39°39' E 002°13'1 0.6
2016-Jun-18 20:33N 39°40' E 002°14'1 1.4
2016-Jun-18 19:33N 39°39' E 002°15'1 1.0
2016-Jun-18 18:33N 39°39' E 002°16'3 3.1
2016-Jun-18 17:33N 39°42' E 002°19'5 5.1
2016-Jun-18 16:33N 39°46' E 002°22'1 0.7
2016-Jun-18 15:33N 39°47' E 002°21'1 1.2
2016-Jun-18 14:33N 39°46' E 002°20'4 3.7
2016-Jun-18 13:33N 39°44' E 002°16'6 6.2
2016-Jun-18 12:33N 39°39' E 002°11'1 0.9
2016-Jun-18 11:33N 39°40' E 002°12'8 8.1
2016-Jun-18 10:33N 39°47' E 002°15'2 2.4
2016-Jun-18 09:33N 39°46' E 002°12'3 3.4
2016-Jun-18 08:33N 39°44' E 002°09'3 2.6
2016-Jun-18 07:33N 39°43' E 002°06'3 2.9
2016-Jun-18 06:28N 39°40' E 002°03'2 2.6
2016-Jun-18 05:33N 39°39' E 002°01'9 7.4
2016-Jun-18 04:24N 39°42' E 002°11'6 6.8
2016-Jun-18 03:33N 39°44' E 002°18'1 0.8
2016-Jun-18 02:33N 39°43' E 002°18'1 0.8
2016-Jun-18 01:33N 39°42' E 002°18'1 0.8
2016-Jun-18 00:33N 39°41' E 002°18'1 0.8
2016-Jun-17 23:33N 39°41' E 002°17'5 5.0
2016-Jun-17 22:33N 39°41' E 002°24'2 2.1
2016-Jun-17 21:33N 39°41' E 002°27'0 0.3
2016-Jun-17 20:32N 39°41' E 002°27'2 1.6
2016-Jun-17 19:33N 39°40' E 002°28'0 0.3
2016-Jun-17 18:31N 39°40' E 002°28'0 0.3
2016-Jun-17 17:33N 39°41' E 002°28'0 0.2
2016-Jun-17 16:33N 39°41' E 002°28'0 0.2
2016-Jun-17 15:32N 39°41' E 002°28'0 0.4
2016-Jun-17 14:33N 39°41' E 002°28'2 2.0
2016-Jun-17 13:33N 39°43' E 002°29'4 1.8
2016-Jun-17 11:25N 39°46' E 002°27'6 7.1
2016-Jun-17 10:33N 39°49' E 002°35'3 2.8
2016-Jun-17 09:33N 39°49' E 002°38'6 6.4
2016-Jun-17 08:33N 39°52' E 002°46'1 1.3
2016-Jun-17 07:33N 39°51' E 002°44'5 5.2
2016-Jun-17 06:33N 39°54' E 002°50'11 4.6
2016-Jun-17 04:13N 39°58' E 003°03'6 5.5
2016-Jun-17 03:10N 39°60' E 003°10'10 5.6
2016-Jun-17 01:21N 39°57' E 003°23'1 0.7
2016-Jun-17 00:31N 39°57' E 003°22'2 0.2
2016-Jun-16 14:33N 39°54' E 003°22'3 2.7
2016-Jun-16 13:33N 39°55' E 003°26'5 4.8
2016-Jun-16 12:33N 39°58' E 003°31'4 3.5
2016-Jun-16 11:33N 40°01' E 003°33'11 1.1
2016-Jun-16 01:13N 40°04' E 003°47'1 1.5
2016-Jun-16 00:33N 40°03' E 003°47'1 1.0
2016-Jun-15 23:33N 40°02' E 003°46'1 1.1
2016-Jun-15 22:33N 40°01' E 003°45'1 0.7
2016-Jun-15 21:33N 40°01' E 003°44'0 0.5
2016-Jun-15 20:33N 40°00' E 003°44'0 0.4
2016-Jun-15 19:33N 39°60' E 003°44'0 0.3
2016-Jun-15 18:33N 39°60' E 003°43'0 0.4
2016-Jun-15 17:33N 39°60' E 003°43'0 0.2
2016-Jun-15 16:33N 39°59' E 003°43'3 2.8
2016-Jun-15 15:33N 39°59' E 003°39'3 3.5
2016-Jun-15 14:33N 39°57' E 003°43'11 2.1
2016-Jun-15 09:29N 39°49' E 003°51'6 6.5
2016-Jun-15 08:30N 39°49' E 003°43'1 0.6
2016-Jun-15 07:33N 39°49' E 003°44'  
Track history (hours):
 
Tides and Currents Weather Stations Pressure Air Temp Water Temp Dewpoint Dewpoint Depression Visibility Wind Speed Wind Dir Waves Ship Positions

Oceanographic research ship Miguel Oliver (Spain)

Ship's website: http://www.mapa.es/es/pesca/pags/miguel_web/index.htm

Last reported at 2016-Jun-25 06:34 UTC. Time now 2016-Jun-25 07:08 UTC.
Position N 39°32' E 002°36'.

Length 70 m; draft 4.8 m.

Type: Other ship. MMSI: 225322000.

Date/timePositionNaut miles runAvg speedWind from/ knotsBaromVisibWave heightAir tempDewpointWater temp
2016-Jun-25 06:34N 39°32' E 002°36'1 1.3
2016-Jun-25 05:33N 39°33' E 002°38'0 0.0
2016-Jun-25 04:33N 39°33' E 002°38'0 0.0
2016-Jun-25 03:33N 39°33' E 002°38'0 0.0
2016-Jun-25 02:33N 39°33' E 002°38'0 0.0
2016-Jun-25 01:34N 39°33' E 002°38'0 0.0
2016-Jun-25 00:33N 39°33' E 002°38'0 0.0
2016-Jun-24 23:33N 39°33' E 002°38'0 0.0
2016-Jun-24 22:33N 39°33' E 002°38'0 0.0
2016-Jun-24 21:33N 39°33' E 002°38'0 0.0
2016-Jun-24 20:33N 39°33' E 002°38'0 0.0
2016-Jun-24 19:33N 39°33' E 002°38'0 0.0
2016-Jun-24 18:33N 39°33' E 002°38'1 0.7
2016-Jun-24 17:33N 39°32' E 002°38'1110.7
2016-Jun-24 16:33N 39°23' E 002°33'9 8.8
2016-Jun-24 15:34N 39°15' E 002°28'3 3.5
2016-Jun-24 14:33N 39°15' E 002°33'4 3.6
2016-Jun-24 13:33N 39°15' E 002°38'2 2.4
2016-Jun-24 12:34N 39°13' E 002°40'3 2.7
2016-Jun-24 11:33N 39°15' E 002°37'7 6.8
2016-Jun-24 10:34N 39°21' E 002°36'10 9.6
2016-Jun-24 09:33N 39°31' E 002°38'2 1.8
2016-Jun-24 08:33N 39°33' E 002°38'0 0.0
2016-Jun-24 07:34N 39°33' E 002°38'0 0.0
2016-Jun-24 04:33N 39°33' E 002°38'0 0.0
2016-Jun-24 03:33N 39°33' E 002°38'0 0.0
2016-Jun-24 02:25N 39°33' E 002°38'0 0.0
2016-Jun-24 01:32N 39°33' E 002°38'0 0.0
2016-Jun-24 00:32N 39°33' E 002°38'0 0.0
2016-Jun-23 23:33N 39°33' E 002°38'0 0.0
2016-Jun-23 22:31N 39°33' E 002°38'0 0.0
2016-Jun-23 21:31N 39°33' E 002°38'0 0.0
2016-Jun-23 20:29N 39°33' E 002°38'0 0.0
2016-Jun-23 19:33N 39°33' E 002°38'0 0.0
2016-Jun-23 18:33N 39°33' E 002°38'0 0.0
2016-Jun-23 17:31N 39°33' E 002°38'0 0.0
2016-Jun-23 16:32N 39°33' E 002°38'0 0.0
2016-Jun-23 15:32N 39°33' E 002°38'0 0.0
2016-Jun-23 14:30N 39°33' E 002°38'0 0.0
2016-Jun-23 13:31N 39°33' E 002°38'0 0.0
2016-Jun-23 12:31N 39°33' E 002°38'0 0.0
2016-Jun-23 11:32N 39°33' E 002°38'0 0.0
2016-Jun-23 10:33N 39°33' E 002°38'0 0.0
2016-Jun-23 09:33N 39°33' E 002°38'0 0.0
2016-Jun-23 08:31N 39°33' E 002°38'0 0.0
2016-Jun-23 07:32N 39°33' E 002°38'0 0.0
2016-Jun-23 05:33N 39°33' E 002°38'0 0.0
2016-Jun-23 04:34N 39°33' E 002°38'0 0.0
2016-Jun-23 03:31N 39°33' E 002°38'0 0.0
2016-Jun-23 02:32N 39°33' E 002°38'0 0.0
2016-Jun-23 01:33N 39°33' E 002°38'0 0.0
2016-Jun-23 00:33N 39°33' E 002°38'0 0.0
2016-Jun-22 23:31N 39°33' E 002°38'0 0.0
2016-Jun-22 22:32N 39°33' E 002°38'0 0.0
2016-Jun-22 21:32N 39°33' E 002°38'0 0.0
2016-Jun-22 20:33N 39°33' E 002°38'0 0.0
2016-Jun-22 19:33N 39°33' E 002°38'0 0.0
2016-Jun-22 18:31N 39°33' E 002°38'0 0.0
2016-Jun-22 17:32N 39°33' E 002°38'0 0.0
2016-Jun-22 16:33N 39°33' E 002°38'0 0.0
2016-Jun-22 15:33N 39°33' E 002°38'0 0.0
2016-Jun-22 14:31N 39°33' E 002°38'0 0.0
2016-Jun-22 13:32N 39°33' E 002°38'0 0.0
2016-Jun-22 12:32N 39°33' E 002°38'0 0.0
2016-Jun-22 11:33N 39°33' E 002°38'0 0.0
2016-Jun-22 10:33N 39°33' E 002°38'0 0.0
2016-Jun-22 09:22N 39°33' E 002°38'0 0.0
2016-Jun-22 08:32N 39°33' E 002°38'0 0.0
2016-Jun-22 07:33N 39°33' E 002°38'0 0.0
2016-Jun-22 06:24N 39°33' E 002°38'0 0.0
2016-Jun-22 05:31N 39°33' E 002°38'0 0.0
2016-Jun-22 04:32N 39°33' E 002°38'0 0.0
2016-Jun-22 03:32N 39°33' E 002°38'0 0.0
2016-Jun-22 02:33N 39°33' E 002°38'0 0.0
2016-Jun-22 01:33N 39°33' E 002°38'0 0.0
2016-Jun-22 00:31N 39°33' E 002°38'0 0.0
2016-Jun-21 23:32N 39°33' E 002°38'0 0.0
2016-Jun-21 22:33N 39°33' E 002°38'0 0.0
2016-Jun-21 21:33N 39°33' E 002°38'0 0.0
2016-Jun-21 20:28N 39°33' E 002°38'0 0.0
2016-Jun-21 19:32N 39°33' E 002°38'0 0.0
2016-Jun-21 18:32N 39°33' E 002°38'0 0.0
2016-Jun-21 17:33N 39°33' E 002°38'0 0.0
2016-Jun-21 16:33N 39°33' E 002°38'0 0.0
2016-Jun-21 15:31N 39°33' E 002°38'0 0.0
2016-Jun-21 14:32N 39°33' E 002°38'0 0.0
2016-Jun-21 13:30N 39°33' E 002°38'0 0.0
2016-Jun-21 12:33N 39°33' E 002°38'0 0.0
2016-Jun-21 11:31N 39°33' E 002°38'0 0.0
2016-Jun-21 10:32N 39°33' E 002°38'0 0.0
2016-Jun-21 09:32N 39°33' E 002°38'0 0.0
2016-Jun-21 08:33N 39°33' E 002°38'0 0.0
2016-Jun-21 07:34N 39°33' E 002°38'2 0.9
2016-Jun-21 05:33N 39°32' E 002°39'1010.0
2016-Jun-21 04:33N 39°22' E 002°40'3 3.1
2016-Jun-21 03:33N 39°19' E 002°40'1 0.6
2016-Jun-21 02:33N 39°19' E 002°39'1 0.7
2016-Jun-21 01:33N 39°19' E 002°38'1 0.7
2016-Jun-21 00:33N 39°20' E 002°37'1 0.8
2016-Jun-20 23:33N 39°20' E 002°36'1 1.0
2016-Jun-20 22:33N 39°21' E 002°35'1 1.0
2016-Jun-20 21:33N 39°21' E 002°34'1 1.1
2016-Jun-20 20:33N 39°21' E 002°33'1 1.1
2016-Jun-20 19:33N 39°22' E 002°31'1 1.1
2016-Jun-20 18:33N 39°22' E 002°30'1 1.0
2016-Jun-20 17:33N 39°23' E 002°29'1 1.1
2016-Jun-20 16:33N 39°23' E 002°28'1 1.0
2016-Jun-20 15:33N 39°24' E 002°27'1 0.7
2016-Jun-20 14:33N 39°25' E 002°26'4 4.1
2016-Jun-20 13:33N 39°23' E 002°22'3 3.0
2016-Jun-20 12:28N 39°21' E 002°18'6 6.4
2016-Jun-20 11:33N 39°26' E 002°14'3 2.9
2016-Jun-20 10:33N 39°27' E 002°17'5 4.9
2016-Jun-20 09:33N 39°32' E 002°21'1 1.1
2016-Jun-20 08:23N 39°31' E 002°22'8 9.4
2016-Jun-20 07:33N 39°26' E 002°30'1 1.3
2016-Jun-20 06:33N 39°25' E 002°30'1 0.9
2016-Jun-20 05:33N 39°25' E 002°31'5 4.7
2016-Jun-20 04:33N 39°22' E 002°37'2 1.9
2016-Jun-20 03:33N 39°21' E 002°39'1 0.8
2016-Jun-20 02:33N 39°21' E 002°38'1 0.9
2016-Jun-20 01:33N 39°21' E 002°37'1 0.9
2016-Jun-20 00:33N 39°21' E 002°35'1 0.8
2016-Jun-19 23:33N 39°21' E 002°34'1 0.6
2016-Jun-19 22:33N 39°21' E 002°34'1 0.6
2016-Jun-19 21:33N 39°21' E 002°33'1 0.6
2016-Jun-19 20:33N 39°21' E 002°32'1 0.7
2016-Jun-19 19:33N 39°22' E 002°32'1 1.2
2016-Jun-19 18:33N 39°23' E 002°31'1 1.1
2016-Jun-19 17:33N 39°24' E 002°30'6 5.9
2016-Jun-19 16:33N 39°20' E 002°25'2 1.6
2016-Jun-19 15:27N 39°18' E 002°24'1 1.3
2016-Jun-19 14:33N 39°17' E 002°26'3 3.5
2016-Jun-19 13:33N 39°15' E 002°29'3 3.0
2016-Jun-19 12:33N 39°12' E 002°30'3 3.2
2016-Jun-19 11:33N 39°10' E 002°33'1 1.1
2016-Jun-19 10:33N 39°09' E 002°33'2 2.2
2016-Jun-19 09:33N 39°07' E 002°35'4 3.7
2016-Jun-19 08:33N 39°04' E 002°38'4 4.0
2016-Jun-19 07:33N 39°00' E 002°39'3 2.9
2016-Jun-19 06:33N 38°58' E 002°38'2 2.3
2016-Jun-19 05:33N 38°55' E 002°37'5 5.1
2016-Jun-19 04:33N 39°00' E 002°36'7 6.8
2016-Jun-19 03:33N 39°07' E 002°33'7 6.7
2016-Jun-19 02:33N 39°13' E 002°30'7 6.7
2016-Jun-19 01:34N 39°19' E 002°27'6 6.3
2016-Jun-19 00:33N 39°25' E 002°23'6 5.7
2016-Jun-18 23:33N 39°29' E 002°19'5 5.5
2016-Jun-18 22:33N 39°34' E 002°16'5 5.3
2016-Jun-18 21:33N 39°39' E 002°13'1 0.6
2016-Jun-18 20:33N 39°40' E 002°14'1 1.4
2016-Jun-18 19:33N 39°39' E 002°15'1 1.0
2016-Jun-18 18:33N 39°39' E 002°16'3 3.1
2016-Jun-18 17:33N 39°42' E 002°19'5 5.1
2016-Jun-18 16:33N 39°46' E 002°22'1 0.7
2016-Jun-18 15:33N 39°47' E 002°21'1 1.2
2016-Jun-18 14:33N 39°46' E 002°20'4 3.7
2016-Jun-18 13:33N 39°44' E 002°16'6 6.2
2016-Jun-18 12:33N 39°39' E 002°11'1 0.9
2016-Jun-18 11:33N 39°40' E 002°12'8 8.1
2016-Jun-18 10:33N 39°47' E 002°15'2 2.4
2016-Jun-18 09:33N 39°46' E 002°12'3 3.4
2016-Jun-18 08:33N 39°44' E 002°09'3 2.6
2016-Jun-18 07:33N 39°43' E 002°06'3 2.9
2016-Jun-18 06:28N 39°40' E 002°03'2 2.6
2016-Jun-18 05:33N 39°39' E 002°01'9 7.4
2016-Jun-18 04:24N 39°42' E 002°11'6 6.8
2016-Jun-18 03:33N 39°44' E 002°18'1 0.8
2016-Jun-18 02:33N 39°43' E 002°18'1 0.8
2016-Jun-18 01:33N 39°42' E 002°18'1 0.8
2016-Jun-18 00:33N 39°41' E 002°18'1 0.8
2016-Jun-17 23:33N 39°41' E 002°17'5 5.0
2016-Jun-17 22:33N 39°41' E 002°24'2 2.1
2016-Jun-17 21:33N 39°41' E 002°27'0 0.3
2016-Jun-17 20:32N 39°41' E 002°27'2 1.6
2016-Jun-17 19:33N 39°40' E 002°28'0 0.3
2016-Jun-17 18:31N 39°40' E 002°28'0 0.3
2016-Jun-17 17:33N 39°41' E 002°28'0 0.2
2016-Jun-17 16:33N 39°41' E 002°28'0 0.2
2016-Jun-17 15:32N 39°41' E 002°28'0 0.4
2016-Jun-17 14:33N 39°41' E 002°28'2 2.0
2016-Jun-17 13:33N 39°43' E 002°29'4 1.8
2016-Jun-17 11:25N 39°46' E 002°27'6 7.1
2016-Jun-17 10:33N 39°49' E 002°35'3 2.8
2016-Jun-17 09:33N 39°49' E 002°38'6 6.4
2016-Jun-17 08:33N 39°52' E 002°46'1 1.3
2016-Jun-17 07:33N 39°51' E 002°44'5 5.2
2016-Jun-17 06:33N 39°54' E 002°50'11 4.6
2016-Jun-17 04:13N 39°58' E 003°03'6 5.5
2016-Jun-17 03:10N 39°60' E 003°10'10 5.6
2016-Jun-17 01:21N 39°57' E 003°23'1 0.7
2016-Jun-17 00:31N 39°57' E 003°22'2 0.2
2016-Jun-16 14:33N 39°54' E 003°22'3 2.7
2016-Jun-16 13:33N 39°55' E 003°26'5 4.8
2016-Jun-16 12:33N 39°58' E 003°31'4 3.5
2016-Jun-16 11:33N 40°01' E 003°33'11 1.1
2016-Jun-16 01:13N 40°04' E 003°47'1 1.5
2016-Jun-16 00:33N 40°03' E 003°47'1 1.0
2016-Jun-15 23:33N 40°02' E 003°46'1 1.1
2016-Jun-15 22:33N 40°01' E 003°45'1 0.7
2016-Jun-15 21:33N 40°01' E 003°44'0 0.5
2016-Jun-15 20:33N 40°00' E 003°44'0 0.4
2016-Jun-15 19:33N 39°60' E 003°44'0 0.3
2016-Jun-15 18:33N 39°60' E 003°43'0 0.4
2016-Jun-15 17:33N 39°60' E 003°43'0 0.2
2016-Jun-15 16:33N 39°59' E 003°43'3 2.8
2016-Jun-15 15:33N 39°59' E 003°39'3 3.5
2016-Jun-15 14:33N 39°57' E 003°43'11 2.1
2016-Jun-15 09:29N 39°49' E 003°51'6 6.5
2016-Jun-15 08:30N 39°49' E 003°43'1 0.6
2016-Jun-15 07:33N 39°49' E 003°44'  

Dump ship's entire track history